Time;durP1;ratioP1;P1;durP2;ratioP2;P2;SDS_P1;SDS_P2;PMS_P1;PMS_P2;Temp;Humidity;BMP_temperature;BMP_pressure;BME280_temperature;BME280_humidity;BME280_pressure;Samples;Min_cycle;Max_cycle;Signal;HPM_P1;HPM_P2
2022/05/19 00:02:13;;;;;;;;;;;;;;;16.19;55.23;101396.41;4946595;28;120763;-45
2022/05/19 00:04:39;;;;;;;;;;;;;;;16.15;55.26;101394.53;4960132;28;97909;-58
2022/05/19 00:07:05;;;;;;;;;;;;;;;16.13;55.25;101394.00;4942208;28;119266;-50
2022/05/19 00:09:31;;;;;;;;;;;;;;;16.10;55.31;101395.38;4939218;28;128677;-46
2022/05/19 00:11:57;;;;;;;;;;;;;;;16.08;55.48;101391.31;4954901;28;99177;-59
2022/05/19 00:14:23;;;;;;;;;;;;;;;16.04;55.71;101391.06;4938003;28;111514;-46
2022/05/19 00:16:49;;;;;;;;;;;;;;;16.00;55.51;101386.50;4939958;28;121289;-58
2022/05/19 00:19:15;;;;;;;;;;;;;;;15.93;55.59;101376.72;4940102;28;103329;-52
2022/05/19 00:21:41;;;;;;;;;;;;;;;15.89;55.54;101381.09;4940017;28;127795;-59
2022/05/19 00:24:08;;;;;;;;;;;;;;;15.84;55.88;101383.03;4939415;28;128370;-58
2022/05/19 00:26:34;;;;;;;;;;;;;;;15.79;55.90;101378.44;4940613;28;98161;-58
2022/05/19 00:29:00;;;;;;;;;;;;;;;15.76;55.79;101381.72;4939104;28;126047;-59
2022/05/19 00:31:26;;;;;;;;;;;;;;;15.74;56.01;101381.19;4940063;28;98348;-46
2022/05/19 00:33:52;;;;;;;;;;;;;;;15.73;56.27;101386.91;4956118;28;97999;-58
2022/05/19 00:36:19;;;;;;;;;;;;;;;15.70;55.87;101380.13;4950841;28;119704;-58
2022/05/19 00:38:45;;;;;;;;;;;;;;;15.68;56.22;101374.97;4954311;28;98366;-48
2022/05/19 00:41:11;;;;;;;;;;;;;;;15.66;55.98;101384.47;4946490;28;127468;-46
2022/05/19 00:43:42;;;;;;;;;;;;;;;15.64;55.99;101373.03;4956541;28;98009;-58
2022/05/19 00:46:18;;;;;;;;;;;;;;;15.60;55.80;101370.09;4950269;28;97892;-45
2022/05/19 00:48:59;;;;;;;;;;;;;;;15.56;55.80;101371.75;4953766;28;98400;-46
2022/05/19 00:51:42;;;;;;;;;;;;;;;15.54;56.27;101373.09;4937923;28;98920;-48
2022/05/19 00:54:09;;;;;;;;;;;;;;;15.52;55.86;101369.81;4948959;28;97876;-46
2022/05/19 00:56:39;;;;;;;;;;;;;;;15.46;56.42;101375.28;4957651;28;98126;-48
2022/05/19 00:59:12;;;;;;;;;;;;;;;15.42;56.46;101378.84;4958460;28;129453;-46
2022/05/19 01:01:41;;;;;;;;;;;;;;;15.37;56.43;101374.25;4955821;28;121580;-45
2022/05/19 01:04:18;;;;;;;;;;;;;;;15.35;56.37;101375.59;4943317;28;125124;-58
2022/05/19 01:06:45;;;;;;;;;;;;;;;15.30;56.26;101378.34;4937417;28;117276;-58
2022/05/19 01:09:12;;;;;;;;;;;;;;;15.21;56.54;101372.69;4936411;28;127959;-57
2022/05/19 01:11:38;;;;;;;;;;;;;;;15.15;56.67;101371.88;4952200;28;125754;-45
2022/05/19 01:14:05;;;;;;;;;;;;;;;15.09;57.08;101359.41;4958001;28;98389;-58
2022/05/19 01:16:31;;;;;;;;;;;;;;;15.03;57.22;101359.69;4959306;28;97779;-47
2022/05/19 01:18:57;;;;;;;;;;;;;;;14.99;56.97;101359.44;4956653;28;121906;-49
2022/05/19 01:21:24;;;;;;;;;;;;;;;14.95;56.91;101361.88;4940222;28;98485;-47
2022/05/19 01:24:03;;;;;;;;;;;;;;;14.93;57.18;101357.81;4954968;28;127953;-57
2022/05/19 01:26:31;;;;;;;;;;;;;;;14.91;57.71;101349.13;4940722;28;113986;-58
2022/05/19 01:28:57;;;;;;;;;;;;;;;14.86;57.69;101349.97;4944579;28;98481;-58
2022/05/19 01:31:50;;;;;;;;;;;;;;;14.85;57.30;101342.88;4947360;28;126120;-57
2022/05/19 01:34:18;;;;;;;;;;;;;;;14.83;57.56;101341.56;4941420;28;126833;-58
2022/05/19 01:36:44;;;;;;;;;;;;;;;14.79;57.69;101341.28;4962440;28;97796;-49
2022/05/19 01:39:12;;;;;;;;;;;;;;;14.75;57.25;101339.41;4959496;28;127498;-46
2022/05/19 01:41:51;;;;;;;;;;;;;;;14.68;57.86;101337.75;4960401;28;99328;-47
2022/05/19 01:44:25;;;;;;;;;;;;;;;14.64;57.79;101339.41;4960755;28;98034;-46
2022/05/19 01:46:57;;;;;;;;;;;;;;;14.61;57.28;101337.22;4947247;28;97683;-58
2022/05/19 01:49:55;;;;;;;;;;;;;;;14.58;57.59;101336.97;4944018;28;111660;-58
2022/05/19 01:52:29;;;;;;;;;;;;;;;14.55;57.73;101341.03;4927639;28;98941;-46
2022/05/19 01:55:16;;;;;;;;;;;;;;;14.53;58.00;101347.81;4958270;28;98186;-58
2022/05/19 01:58:03;;;;;;;;;;;;;;;14.53;57.99;101339.69;4942661;28;97663;-58
2022/05/19 02:00:29;;;;;;;;;;;;;;;14.52;57.83;101340.78;4959476;28;128722;-58
2022/05/19 02:03:02;;;;;;;;;;;;;;;14.49;58.04;101337.50;4958818;28;98968;-59
2022/05/19 02:05:37;;;;;;;;;;;;;;;14.50;57.83;101338.31;4942968;28;113721;-58
2022/05/19 02:08:05;;;;;;;;;;;;;;;14.48;58.19;101340.47;4961826;28;97718;-58
2022/05/19 02:10:32;;;;;;;;;;;;;;;14.48;58.23;101330.44;4955185;28;121943;-58
2022/05/19 02:12:59;;;;;;;;;;;;;;;14.53;58.04;101331.53;4943407;28;98468;-59
2022/05/19 02:15:26;;;;;;;;;;;;;;;14.56;57.93;101331.00;4944080;28;126306;-45
2022/05/19 02:17:52;;;;;;;;;;;;;;;14.60;58.21;101332.88;4961354;28;97719;-46
2022/05/19 02:20:20;;;;;;;;;;;;;;;14.62;57.90;101328.03;4958993;28;99124;-57
2022/05/19 02:22:45;;;;;;;;;;;;;;;14.64;58.06;101328.53;4951860;28;123484;-58
2022/05/19 02:25:13;;;;;;;;;;;;;;;14.63;57.88;101329.63;4943275;28;127567;-58
2022/05/19 02:27:42;;;;;;;;;;;;;;;14.60;57.46;101326.66;4962901;28;97950;-45
2022/05/19 02:30:11;;;;;;;;;;;;;;;14.59;57.84;101325.84;4958492;28;115164;-58
2022/05/19 02:32:37;;;;;;;;;;;;;;;14.58;57.69;101328.81;4955790;28;99084;-58
2022/05/19 02:35:06;;;;;;;;;;;;;;;14.57;58.09;101330.72;4940000;28;127908;-50
2022/05/19 02:37:32;;;;;;;;;;;;;;;14.58;57.68;101334.25;4962700;28;97981;-57
2022/05/19 02:39:59;;;;;;;;;;;;;;;14.56;58.16;101329.09;4952718;28;127956;-57
2022/05/19 02:42:25;;;;;;;;;;;;;;;14.56;57.87;101326.38;4942919;28;98648;-45
2022/05/19 02:44:51;;;;;;;;;;;;;;;14.55;58.07;101341.03;4939962;28;127886;-49
2022/05/19 02:47:17;;;;;;;;;;;;;;;14.55;58.12;101340.25;4941479;28;101156;-58
2022/05/19 02:49:43;;;;;;;;;;;;;;;14.55;57.79;101334.81;4940629;28;124711;-46
2022/05/19 02:52:09;;;;;;;;;;;;;;;14.53;57.83;101339.69;4942002;28;108682;-46
2022/05/19 02:54:35;;;;;;;;;;;;;;;14.48;57.99;101348.59;4959327;28;129480;-58
2022/05/19 02:57:01;;;;;;;;;;;;;;;14.44;57.66;101351.06;4960776;28;105547;-58
2022/05/19 02:59:27;;;;;;;;;;;;;;;14.43;57.72;101346.72;4960300;28;125749;-58
2022/05/19 03:01:53;;;;;;;;;;;;;;;14.41;57.90;101353.50;4960226;28;120750;-58
2022/05/19 03:04:18;;;;;;;;;;;;;;;14.36;58.03;101357.03;4941439;28;121131;-47
2022/05/19 03:06:44;;;;;;;;;;;;;;;14.34;58.00;101359.19;4940790;28;122064;-59
2022/05/19 03:09:10;;;;;;;;;;;;;;;14.31;58.02;101357.03;4941784;28;127931;-57
2022/05/19 03:11:36;;;;;;;;;;;;;;;14.30;58.23;101366.22;4954412;28;98439;-58
2022/05/19 03:14:02;;;;;;;;;;;;;;;14.28;58.36;101365.69;4955210;28;126919;-46
2022/05/19 03:16:28;;;;;;;;;;;;;;;14.27;57.96;101365.97;4948501;28;108866;-58
2022/05/19 03:18:54;;;;;;;;;;;;;;;14.24;58.20;101370.84;4940266;28;125974;-58
2022/05/19 03:21:20;;;;;;;;;;;;;;;14.24;58.13;101372.75;4940423;28;127846;-57
2022/05/19 03:23:46;;;;;;;;;;;;;;;14.21;58.15;101365.16;4953436;28;127109;-57
2022/05/19 03:26:12;;;;;;;;;;;;;;;14.20;58.08;101366.22;4958417;28;123036;-46
2022/05/19 03:28:38;;;;;;;;;;;;;;;14.22;58.28;101374.91;4960787;28;98948;-57
2022/05/19 03:31:03;;;;;;;;;;;;;;;14.20;58.10;101377.88;4931966;28;125461;-45
2022/05/19 03:33:29;;;;;;;;;;;;;;;14.20;58.40;101368.94;4940317;28;109791;-58
2022/05/19 03:35:57;;;;;;;;;;;;;;;14.19;58.27;101367.31;4938547;28;121868;-46
2022/05/19 03:38:22;;;;;;;;;;;;;;;14.20;58.51;101369.75;4940624;28;98515;-51
2022/05/19 03:40:48;;;;;;;;;;;;;;;14.17;58.45;101378.41;4939153;28;127817;-46
2022/05/19 03:43:14;;;;;;;;;;;;;;;14.13;58.98;101368.38;4940939;28;128119;-58
2022/05/19 03:45:40;;;;;;;;;;;;;;;14.05;58.83;101364.31;4944139;28;122923;-47
2022/05/19 03:48:06;;;;;;;;;;;;;;;13.99;59.03;101368.13;4960775;28;98309;-58
2022/05/19 03:50:32;;;;;;;;;;;;;;;13.92;59.13;101371.06;4944835;28;121490;-46
2022/05/19 03:52:58;;;;;;;;;;;;;;;13.88;59.25;101380.00;4946173;28;98827;-47
2022/05/19 03:55:24;;;;;;;;;;;;;;;13.83;59.44;101375.34;4958642;28;97815;-59
2022/05/19 03:57:50;;;;;;;;;;;;;;;13.82;59.41;101376.44;4958907;28;128452;-46
2022/05/19 04:00:18;;;;;;;;;;;;;;;13.84;59.50;101366.16;4958879;28;123538;-46
2022/05/19 04:02:43;;;;;;;;;;;;;;;13.86;59.63;101380.25;4957258;28;97725;-46
2022/05/19 04:05:10;;;;;;;;;;;;;;;13.87;59.34;101376.47;4939376;28;106595;-59
2022/05/19 04:07:37;;;;;;;;;;;;;;;13.86;59.73;101382.97;4940115;28;116601;-58
2022/05/19 04:10:05;;;;;;;;;;;;;;;13.89;59.43;101382.44;4939575;28;99627;-47
2022/05/19 04:12:30;;;;;;;;;;;;;;;13.93;59.68;101382.72;4940833;28;97977;-58
2022/05/19 04:14:56;;;;;;;;;;;;;;;13.95;59.41;101384.09;4958742;28;122326;-46
2022/05/19 04:17:22;;;;;;;;;;;;;;;13.98;59.45;101380.00;4959734;28;129069;-58
2022/05/19 04:19:48;;;;;;;;;;;;;;;14.00;59.32;101381.38;4959376;28;98059;-58
2022/05/19 04:22:14;;;;;;;;;;;;;;;14.06;59.10;101381.38;4958749;28;127678;-58
2022/05/19 04:24:40;;;;;;;;;;;;;;;14.13;59.00;101377.34;4957622;28;99649;-46
2022/05/19 04:27:06;;;;;;;;;;;;;;;14.21;59.30;101387.66;4957462;28;128760;-47
2022/05/19 04:29:32;;;;;;;;;;;;;;;14.28;59.28;101381.97;4958697;28;123561;-58
2022/05/19 04:31:58;;;;;;;;;;;;;;;14.34;59.07;101383.59;4959234;28;118211;-49
2022/05/19 04:34:24;;;;;;;;;;;;;;;14.40;59.04;101379.81;4939045;28;113078;-48
2022/05/19 04:36:50;;;;;;;;;;;;;;;14.46;59.31;101383.31;4935989;28;126855;-58
2022/05/19 04:39:16;;;;;;;;;;;;;;;14.53;58.95;101389.31;4935450;28;128218;-58
2022/05/19 04:41:42;;;;;;;;;;;;;;;14.61;59.20;101390.69;4935196;28;127950;-58
2022/05/19 04:44:08;;;;;;;;;;;;;;;14.71;58.65;101386.06;4936594;28;122596;-47
2022/05/19 04:46:33;;;;;;;;;;;;;;;14.80;58.78;101390.94;4935096;28;126080;-48
2022/05/19 04:48:59;;;;;;;;;;;;;;;14.87;58.25;101386.88;4935471;28;98917;-57
2022/05/19 04:51:25;;;;;;;;;;;;;;;14.98;58.46;101384.97;4935476;28;126043;-48
2022/05/19 04:53:51;;;;;;;;;;;;;;;15.09;58.14;101392.00;4938422;28;123199;-48
2022/05/19 04:56:17;;;;;;;;;;;;;;;15.22;57.53;101387.88;4937771;28;114996;-48
2022/05/19 04:58:43;;;;;;;;;;;;;;;15.36;57.63;101396.25;4934711;28;129064;-59
2022/05/19 05:01:09;;;;;;;;;;;;;;;15.52;57.05;101400.53;4936739;28;127427;-60
2022/05/19 05:03:35;;;;;;;;;;;;;;;15.73;56.92;101397.78;4946929;28;98238;-47
2022/05/19 05:06:01;;;;;;;;;;;;;;;15.93;56.40;101392.22;4958779;28;100498;-49
2022/05/19 05:08:27;;;;;;;;;;;;;;;16.14;56.25;101404.59;4958790;28;114955;-47
2022/05/19 05:10:53;;;;;;;;;;;;;;;16.34;55.75;101402.81;4954518;28;127877;-48
2022/05/19 05:13:19;;;;;;;;;;;;;;;16.55;55.29;101395.34;4949209;28;99681;-59
2022/05/19 05:15:44;;;;;;;;;;;;;;;16.76;54.91;101401.44;4957892;28;127161;-50
2022/05/19 05:18:10;;;;;;;;;;;;;;;16.96;54.76;101403.16;4959168;28;115120;-48
2022/05/19 05:20:38;;;;;;;;;;;;;;;17.15;54.18;101396.69;4957790;28;126658;-48
2022/05/19 05:23:04;;;;;;;;;;;;;;;17.36;54.01;101402.72;4955272;28;116951;-47
2022/05/19 05:25:29;;;;;;;;;;;;;;;17.55;53.60;101402.75;4940761;28;111308;-47
2022/05/19 05:27:57;;;;;;;;;;;;;;;17.76;53.27;101400.59;4958048;28;128547;-58
2022/05/19 05:30:23;;;;;;;;;;;;;;;17.98;52.99;101402.78;4959039;28;98606;-47
2022/05/19 05:32:49;;;;;;;;;;;;;;;18.19;52.54;101403.28;4947999;28;97921;-59
2022/05/19 05:35:15;;;;;;;;;;;;;;;18.40;52.07;101409.25;4958886;28;98175;-47
2022/05/19 05:37:41;;;;;;;;;;;;;;;18.62;52.00;101405.88;4947724;28;126937;-59
2022/05/19 05:40:08;;;;;;;;;;;;;;;18.86;51.60;101412.06;4940184;28;97789;-46
2022/05/19 05:42:34;;;;;;;;;;;;;;;19.04;49.65;101404.91;4938975;28;97831;-46
2022/05/19 05:45:00;;;;;;;;;;;;;;;19.30;49.75;101401.69;4939245;28;98520;-58
2022/05/19 05:47:26;;;;;;;;;;;;;;;19.53;49.47;101411.63;4938384;28;118725;-46
2022/05/19 05:49:52;;;;;;;;;;;;;;;19.81;49.30;101415.16;4939166;28;127624;-46
2022/05/19 05:52:18;;;;;;;;;;;;;;;20.09;49.02;101415.09;4938486;28;122161;-47
2022/05/19 05:54:44;;;;;;;;;;;;;;;20.48;48.51;101413.63;4953752;28;98703;-47
2022/05/19 05:57:10;;;;;;;;;;;;;;;21.58;46.25;101418.44;4938651;28;128140;-49
2022/05/19 05:59:36;;;;;;;;;;;;;;;23.38;44.26;101419.72;4938801;28;98018;-58
2022/05/19 06:02:02;;;;;;;;;;;;;;;25.73;41.02;101430.19;4939427;28;121668;-58
2022/05/19 06:04:27;;;;;;;;;;;;;;;26.20;41.55;101426.88;4938707;28;116735;-58
2022/05/19 06:06:53;;;;;;;;;;;;;;;26.75;40.02;101427.25;4938670;28;127959;-59
2022/05/19 06:09:19;;;;;;;;;;;;;;;27.81;39.17;101428.31;4938847;28;126985;-46
2022/05/19 06:11:45;;;;;;;;;;;;;;;27.55;39.72;101428.88;4943306;28;122443;-47
2022/05/19 06:14:11;;;;;;;;;;;;;;;27.51;38.94;101437.13;4940865;28;125881;-58
2022/05/19 06:16:37;;;;;;;;;;;;;;;27.50;36.33;101435.50;4942255;28;128479;-58
2022/05/19 06:19:03;;;;;;;;;;;;;;;27.74;35.53;101428.94;4941397;28;98114;-58
2022/05/19 06:21:29;;;;;;;;;;;;;;;28.32;34.41;101429.00;4940402;28;122948;-48
2022/05/19 06:23:55;;;;;;;;;;;;;;;28.09;35.01;101428.13;4957041;28;128186;-48
2022/05/19 06:26:21;;;;;;;;;;;;;;;28.05;34.56;101427.25;4949570;28;126742;-58
2022/05/19 06:28:47;;;;;;;;;;;;;;;27.93;32.11;101422.66;4959373;28;114372;-58
2022/05/19 06:31:13;;;;;;;;;;;;;;;27.78;31.48;101415.19;4962584;28;97750;-46
2022/05/19 06:33:39;;;;;;;;;;;;;;;28.24;32.02;101418.94;4962322;28;98180;-58
2022/05/19 06:36:05;;;;;;;;;;;;;;;28.65;32.10;101424.94;4961068;28;98488;-47
2022/05/19 06:38:32;;;;;;;;;;;;;;;29.34;31.97;101416.63;4943799;28;98733;-47
2022/05/19 06:42:00;;;;;;;;;;;;;;;29.63;30.55;101423.41;4942064;28;115528;-48
2022/05/19 06:43:47;;;;;;;;;;;;;;;29.52;29.97;101420.47;4960152;28;98863;-58
2022/05/19 06:46:13;;;;;;;;;;;;;;;29.22;28.97;101425.94;4950494;28;97819;-58
2022/05/19 06:48:39;;;;;;;;;;;;;;;29.18;29.64;101422.31;4951494;28;97908;-47
2022/05/19 06:51:05;;;;;;;;;;;;;;;28.96;28.84;101415.56;4941445;28;97937;-49
2022/05/19 06:53:31;;;;;;;;;;;;;;;28.58;28.88;101416.47;4944598;28;127534;-59
2022/05/19 06:55:57;;;;;;;;;;;;;;;28.29;29.58;101413.09;4955566;28;127665;-59
2022/05/19 06:58:23;;;;;;;;;;;;;;;28.81;29.65;101414.53;4958310;28;111693;-59
2022/05/19 07:00:49;;;;;;;;;;;;;;;28.74;28.88;101408.06;4953838;28;123660;-48
2022/05/19 07:03:15;;;;;;;;;;;;;;;28.87;28.68;101404.72;4940687;28;126876;-49
2022/05/19 07:05:42;;;;;;;;;;;;;;;29.02;28.28;101393.91;4961280;28;128663;-59
2022/05/19 07:08:08;;;;;;;;;;;;;;;29.48;28.50;101400.19;4946930;28;97940;-59
2022/05/19 07:10:34;;;;;;;;;;;;;;;29.70;28.77;101400.50;4941975;28;97954;-47
2022/05/19 07:13:03;;;;;;;;;;;;;;;29.78;28.86;101397.44;4941380;28;128497;-59
2022/05/19 07:15:29;;;;;;;;;;;;;;;29.14;28.19;101399.25;4943851;28;126968;-47
2022/05/19 07:17:55;;;;;;;;;;;;;;;29.35;28.51;101384.91;4948845;28;122080;-48
2022/05/19 07:23:06;;;;;;;;;;;;;;;29.21;28.09;101384.69;4951491;28;98006;-58
2022/05/19 07:25:32;;;;;;;;;;;;;;;29.41;27.83;101382.63;4958819;28;99628;-47
2022/05/19 07:27:58;;;;;;;;;;;;;;;29.82;27.26;101378.06;4956202;28;100531;-59
2022/05/19 07:30:24;;;;;;;;;;;;;;;29.92;27.93;101377.41;4960055;28;121624;-59
2022/05/19 07:32:50;;;;;;;;;;;;;;;30.18;26.88;101379.31;4960307;28;98930;-47
2022/05/19 07:35:16;;;;;;;;;;;;;;;30.17;27.18;101371.38;4960338;28;103102;-59
2022/05/19 07:37:42;;;;;;;;;;;;;;;30.56;27.21;101369.00;4960605;28;97720;-46
2022/05/19 07:40:08;;;;;;;;;;;;;;;30.97;26.68;101364.25;4941483;28;116216;-59
2022/05/19 07:42:34;;;;;;;;;;;;;;;31.20;26.39;101368.75;4940681;28;123653;-59
2022/05/19 07:45:01;;;;;;;;;;;;;;;31.61;26.38;101361.09;4939958;28;128142;-59
2022/05/19 07:47:29;;;;;;;;;;;;;;;31.07;25.16;101359.13;4940501;28;100269;-59
2022/05/19 07:49:56;;;;;;;;;;;;;;;31.67;25.51;101351.16;4941843;28;97995;-49
2022/05/19 07:52:22;;;;;;;;;;;;;;;32.06;24.92;101338.59;4940797;28;98905;-60
2022/05/19 07:54:48;;;;;;;;;;;;;;;32.33;24.23;101339.06;4952273;28;98707;-59
2022/05/19 07:57:14;;;;;;;;;;;;;;;32.66;24.43;101341.53;4959445;28;121753;-49
2022/05/19 07:59:40;;;;;;;;;;;;;;;32.24;23.96;101339.47;4951959;28;123484;-58
2022/05/19 08:02:07;;;;;;;;;;;;;;;33.67;23.95;101347.81;4957904;28;98855;-59
2022/05/19 08:04:33;;;;;;;;;;;;;;;34.68;23.40;101335.66;4960659;28;98403;-60
2022/05/19 08:07:01;;;;;;;;;;;;;;;34.47;22.51;101346.19;4942443;28;126608;-49
2022/05/19 08:12:16;;;;;;;;;;;;;;;36.07;21.66;101330.56;4937076;28;98050;-51
2022/05/19 08:17:29;;;;;;;;;;;;;;;37.55;20.43;101322.06;4937355;28;97949;-50
2022/05/19 08:19:55;;;;;;;;;;;;;;;38.21;20.01;101325.88;4940805;28;113263;-50
2022/05/19 08:22:21;;;;;;;;;;;;;;;38.86;19.84;101315.84;4939229;28;126686;-59
2022/05/19 08:24:49;;;;;;;;;;;;;;;39.26;18.75;101311.56;4940466;28;127746;-51
2022/05/19 08:27:16;;;;;;;;;;;;;;;38.80;17.64;101312.81;4959152;28;97975;-59
2022/05/19 08:29:42;;;;;;;;;;;;;;;39.40;18.03;101310.34;4946622;28;119609;-62
2022/05/19 08:32:08;;;;;;;;;;;;;;;39.85;17.70;101303.00;4938136;28;128197;-60
2022/05/19 08:34:34;;;;;;;;;;;;;;;39.41;17.13;101288.59;4939020;28;122893;-56
2022/05/19 08:37:00;;;;;;;;;;;;;;;40.00;16.97;101290.03;4938746;28;125962;-60
2022/05/19 08:39:26;;;;;;;;;;;;;;;40.47;17.02;101275.19;4949090;28;97812;-59
2022/05/19 08:41:58;;;;;;;;;;;;;;;40.12;16.94;101268.72;4944620;28;98414;-59
2022/05/19 08:44:38;;;;;;;;;;;;;;;39.81;16.70;101263.63;4938192;28;98342;-59
2022/05/19 08:47:04;;;;;;;;;;;;;;;39.76;16.82;101264.19;4939662;28;98201;-54
2022/05/19 08:50:01;;;;;;;;;;;;;;;40.61;16.79;101271.13;4940478;28;114655;-51
2022/05/19 08:52:34;;;;;;;;;;;;;;;41.31;16.24;101263.38;4939615;28;99214;-52
2022/05/19 08:55:03;;;;;;;;;;;;;;;41.91;16.08;101265.94;4951450;28;111360;-49
2022/05/19 08:57:40;;;;;;;;;;;;;;;42.11;15.83;101262.69;4938136;28;97745;-59
2022/05/19 09:00:17;;;;;;;;;;;;;;;42.49;15.72;101258.69;4952314;28;98202;-59
2022/05/19 09:02:51;;;;;;;;;;;;;;;42.87;15.22;101255.41;4959596;28;98439;-51
2022/05/19 09:05:54;;;;;;;;;;;;;;;42.07;15.61;101247.88;4956985;28;97855;-51
2022/05/19 09:08:24;;;;;;;;;;;;;;;41.43;15.67;101243.53;4958842;28;97921;-60
2022/05/19 09:11:04;;;;;;;;;;;;;;;40.88;16.05;101239.50;4955103;28;98039;-60
2022/05/19 09:13:41;;;;;;;;;;;;;;;40.11;16.87;101245.34;4942282;28;99511;-48
2022/05/19 09:16:15;;;;;;;;;;;;;;;39.68;17.33;101229.78;4957019;28;99179;-49
2022/05/19 09:18:44;;;;;;;;;;;;;;;39.31;17.23;101216.44;4955180;28;108898;-55
2022/05/19 09:21:10;;;;;;;;;;;;;;;39.70;17.87;101224.50;4952857;28;121229;-52
2022/05/19 09:23:36;;;;;;;;;;;;;;;40.48;17.28;101234.41;4939722;28;109262;-52
2022/05/19 09:26:16;;;;;;;;;;;;;;;40.29;17.62;101233.47;4947615;28;97851;-46
2022/05/19 09:28:44;;;;;;;;;;;;;;;41.11;17.08;101236.25;4954388;28;107142;-49
2022/05/19 09:31:12;;;;;;;;;;;;;;;41.34;16.94;101237.00;4940083;28;97889;-50
2022/05/19 09:33:42;;;;;;;;;;;;;;;41.89;16.02;101235.25;4953412;28;98605;-49
2022/05/19 09:36:12;;;;;;;;;;;;;;;41.69;16.16;101241.28;4943768;28;99212;-60
2022/05/19 09:38:45;;;;;;;;;;;;;;;41.93;16.26;101232.28;4955020;28;98107;-51
2022/05/19 09:41:26;;;;;;;;;;;;;;;42.50;15.77;101221.41;4956330;28;115414;-51
2022/05/19 09:43:53;;;;;;;;;;;;;;;42.42;15.73;101222.97;4960324;28;98591;-60
2022/05/19 09:46:19;;;;;;;;;;;;;;;41.90;16.22;101213.44;4961438;28;114833;-52
2022/05/19 09:48:48;;;;;;;;;;;;;;;41.12;15.66;101226.53;4960178;28;127385;-51
2022/05/19 09:51:16;;;;;;;;;;;;;;;41.97;15.43;101215.16;4962581;28;97772;-52
2022/05/19 09:53:52;;;;;;;;;;;;;;;42.96;15.38;101217.75;4961525;28;99242;-49
2022/05/19 09:56:20;;;;;;;;;;;;;;;41.91;15.55;101210.13;4953997;28;98284;-52
2022/05/19 09:58:48;;;;;;;;;;;;;;;41.55;15.66;101213.59;4958922;28;98001;-58
2022/05/19 10:01:27;;;;;;;;;;;;;;;42.46;15.60;101203.00;4962534;28;98049;-60
2022/05/19 10:03:58;;;;;;;;;;;;;;;43.05;16.24;101218.53;4960533;28;99218;-60
2022/05/19 10:06:44;;;;;;;;;;;;;;;43.36;15.48;101217.53;4959660;28;99027;-50
2022/05/19 10:09:13;;;;;;;;;;;;;;;44.05;15.13;101205.25;4940847;28;97874;-56
2022/05/19 10:11:48;;;;;;;;;;;;;;;43.89;14.96;101202.84;4942860;28;97857;-59
2022/05/19 10:14:20;;;;;;;;;;;;;;;42.93;15.20;101194.00;4942109;28;98166;-60
2022/05/19 10:17:07;;;;;;;;;;;;;;;41.66;15.48;101191.31;4957289;28;97758;-61
2022/05/19 10:19:56;;;;;;;;;;;;;;;41.36;15.96;101181.56;4960994;28;97850;-59
2022/05/19 10:22:35;;;;;;;;;;;;;;;40.93;16.09;101183.19;4943477;28;118351;-60
2022/05/19 10:25:23;;;;;;;;;;;;;;;42.09;15.63;101183.09;4961016;28;98026;-50
2022/05/19 10:31:13;;;;;;;;;;;;;;;42.54;16.38;101182.38;4942221;28;98120;-49
2022/05/19 10:33:55;;;;;;;;;;;;;;;41.75;15.81;101169.97;4956925;28;98132;-48
2022/05/19 10:36:42;;;;;;;;;;;;;;;41.53;16.11;101168.00;4950757;28;97955;-60
2022/05/19 10:39:29;;;;;;;;;;;;;;;40.54;16.57;101162.00;4959614;28;98529;-49
2022/05/19 10:42:10;;;;;;;;;;;;;;;41.22;16.36;101162.34;4942835;28;98323;-60
2022/05/19 10:44:52;;;;;;;;;;;;;;;40.37;16.87;101161.41;4939901;28;122563;-61
2022/05/19 10:47:40;;;;;;;;;;;;;;;39.75;17.50;101147.78;4958626;28;98133;-48
2022/05/19 10:50:30;;;;;;;;;;;;;;;38.05;18.06;101137.38;4954848;28;98070;-48
2022/05/19 10:53:15;;;;;;;;;;;;;;;38.73;17.66;101139.16;4955923;28;98519;-48
2022/05/19 10:56:00;;;;;;;;;;;;;;;37.38;18.04;101128.50;4945212;28;98233;-50
2022/05/19 10:58:45;;;;;;;;;;;;;;;38.50;17.87;101133.78;4960128;28;98276;-51
2022/05/19 11:01:15;;;;;;;;;;;;;;;38.39;18.16;101136.09;4950098;28;125228;-59
2022/05/19 11:04:01;;;;;;;;;;;;;;;38.71;18.37;101138.00;4957030;28;98585;-49
2022/05/19 11:06:30;;;;;;;;;;;;;;;39.16;17.57;101135.09;4943054;28;97976;-48
2022/05/19 11:09:13;;;;;;;;;;;;;;;39.16;17.87;101140.72;4956257;28;98292;-46
2022/05/19 11:11:43;;;;;;;;;;;;;;;39.39;17.67;101136.03;4966580;28;98437;-51
2022/05/19 11:14:12;;;;;;;;;;;;;;;38.87;17.49;101131.53;4956865;28;97970;-60
2022/05/19 11:16:56;;;;;;;;;;;;;;;38.79;17.77;101128.97;4954092;28;97762;-47
2022/05/19 11:19:29;;;;;;;;;;;;;;;38.85;18.05;101123.56;4961084;28;98933;-48
2022/05/19 11:22:07;;;;;;;;;;;;;;;38.62;18.09;101116.13;4954375;28;120758;-60
2022/05/19 11:27:48;;;;;;;;;;;;;;;38.16;17.96;101117.38;4941360;28;97688;-48
2022/05/19 11:30:19;;;;;;;;;;;;;;;37.98;18.56;101109.44;4954265;28;98738;-59
2022/05/19 11:32:47;;;;;;;;;;;;;;;37.78;18.22;101107.47;4940928;28;98370;-60
2022/05/19 11:35:24;;;;;;;;;;;;;;;37.68;18.45;101099.28;4937607;28;122816;-50
2022/05/19 11:38:04;;;;;;;;;;;;;;;37.70;17.96;101099.66;4939684;28;97898;-49
2022/05/19 11:41:04;;;;;;;;;;;;;;;37.10;17.94;101092.19;4958174;28;99306;-59
2022/05/19 11:43:43;;;;;;;;;;;;;;;36.34;18.31;101085.69;4941542;28;98226;-47
2022/05/19 11:46:15;;;;;;;;;;;;;;;36.32;18.36;101074.13;4941230;28;97959;-59
2022/05/19 11:57:37;;;;;;;;;;;;;;;35.98;18.24;101072.34;4940353;28;97898;-60
2022/05/19 12:00:04;;;;;;;;;;;;;;;35.72;18.46;101067.56;4941255;28;97868;-58
2022/05/19 12:02:35;;;;;;;;;;;;;;;35.67;18.21;101060.44;4971127;28;118152;-48
2022/05/19 12:05:27;;;;;;;;;;;;;;;36.11;18.38;101070.47;4955724;28;124632;-59
2022/05/19 12:07:56;;;;;;;;;;;;;;;35.68;18.15;101058.41;4948954;28;98326;-49
2022/05/19 12:10:35;;;;;;;;;;;;;;;35.01;18.35;101069.41;4957878;28;97980;-47
2022/05/19 12:13:03;;;;;;;;;;;;;;;34.95;18.78;101059.88;4963920;28;98259;-47
2022/05/19 12:15:39;;;;;;;;;;;;;;;34.80;18.09;101057.25;4938381;28;99353;-49
2022/05/19 12:18:32;;;;;;;;;;;;;;;34.87;18.43;101042.38;4941391;28;98320;-46
2022/05/19 12:21:01;;;;;;;;;;;;;;;34.95;18.28;101045.88;4955257;28;97836;-50
2022/05/19 12:23:34;;;;;;;;;;;;;;;35.55;18.19;101041.41;4960211;28;98537;-59
2022/05/19 12:26:04;;;;;;;;;;;;;;;35.84;17.15;101047.31;4950943;28;107051;-59
2022/05/19 12:28:53;;;;;;;;;;;;;;;36.31;16.83;101036.84;4953540;28;125192;-60
2022/05/19 12:31:59;;;;;;;;;;;;;;;36.51;16.64;101031.28;4945392;28;97797;-59
2022/05/19 12:34:56;;;;;;;;;;;;;;;36.02;16.26;101030.22;4946955;28;98443;-59
2022/05/19 12:37:34;;;;;;;;;;;;;;;35.97;16.53;101023.06;4939893;28;98057;-47
2022/05/19 12:40:22;;;;;;;;;;;;;;;35.39;16.87;101019.63;4940051;28;98445;-46
2022/05/19 12:42:48;;;;;;;;;;;;;;;35.01;17.14;101019.78;4956878;28;97917;-59
2022/05/19 12:45:19;;;;;;;;;;;;;;;34.28;17.68;101009.13;4959286;28;98369;-46
2022/05/19 12:48:06;;;;;;;;;;;;;;;33.01;17.72;101018.13;4958716;28;98196;-59
2022/05/19 12:51:08;;;;;;;;;;;;;;;32.81;18.53;101015.81;4946605;28;98713;-46
2022/05/19 12:53:59;;;;;;;;;;;;;;;32.86;18.78;101009.84;4955833;28;118262;-47
2022/05/19 12:56:40;;;;;;;;;;;;;;;32.89;18.46;101009.00;4947471;28;98206;-59
2022/05/19 12:59:23;;;;;;;;;;;;;;;32.79;18.33;100998.72;4940174;28;98118;-59
2022/05/19 13:01:50;;;;;;;;;;;;;;;33.14;18.32;101008.88;4949267;28;98959;-59
2022/05/19 13:04:28;;;;;;;;;;;;;;;33.49;18.12;101001.47;4958378;28;97970;-46
2022/05/19 13:07:23;;;;;;;;;;;;;;;33.63;18.16;101000.56;4957547;28;103103;-48
2022/05/19 13:10:09;;;;;;;;;;;;;;;33.39;18.16;100986.34;4937020;28;99252;-59
2022/05/19 13:12:47;;;;;;;;;;;;;;;33.52;18.24;100991.47;4948071;28;98042;-59
2022/05/19 13:15:20;;;;;;;;;;;;;;;33.01;18.50;100993.81;4957109;28;98294;-59